Tropical Cyclones
[Index]
Main Index Home Page Stock Weather Photos Extreme Storms Discussion Storm News and Storm Chasing Reports Tropical Cyclones / Hurricanes / Typhoons Weather Data and Links Wild Fires / Bushfires Weather Observation Techniques Weather Picture Catalogue Tornado Pictures and Reports Stock Video Footage and DVDs for sale
Season 1994-1995 Tropical Cyclone AGNES Track Map
Season 1994-1995 Summaries: [BoM-AU] [JTWC-AU] [JTWC-SIO] [JTWC-SPAC] [JTWC-SH]
<<- Previous TC | JTWC 1994-1995 Season | Next TC ->>

click for intensity scale information  Lat/long Grid: Show Hide

 Date Labels: Show Hide

Joint Typhoon Warning Centre Cyclone Data

Name: AGNES

15 Apr 1995 12:00 UTC to 23 Apr 1995 12:00 UTC

    date/time    lat    long     hPa   cat  kts
1995-04-15 12    9.0   143.5                  15          
1995-04-15 18    9.6   143.9                  15          
1995-04-16 00   10.1   144.4                  20          
1995-04-16 06   10.5   145.0                  20          
1995-04-16 12   10.8   145.6                  25          
1995-04-16 18   11.2   146.3                  25          
1995-04-17 00   11.5   147.0                  30          
1995-04-17 06   11.8   147.5                  35          
1995-04-17 12   12.1   147.9            1     40          
1995-04-17 18   12.5   148.0            1     50          
1995-04-18 00   12.7   148.0            2     60          
1995-04-18 06   12.8   147.9            3     75          
1995-04-18 12   12.8   147.8            3     90          
1995-04-18 18   12.9   147.8            4    105          
1995-04-19 00   12.9   147.7            4    110          
1995-04-19 06   13.0   147.7            4    105          
1995-04-19 12   13.0   147.6            4    100          
1995-04-19 18   13.0   147.5            3     95          
1995-04-20 00   13.0   147.4            3     90          
1995-04-20 06   12.9   147.4            3     85          
1995-04-20 12   12.8   147.5            3     75          
1995-04-20 18   12.6   147.6            2     65          
1995-04-21 00   12.3   147.8            2     60          
1995-04-21 06   11.9   148.0            2     55          
1995-04-21 12   11.5   148.1            1     50          
1995-04-21 18   11.1   148.0            1     45          
1995-04-22 00   10.8   147.8            1     40          
1995-04-22 06   10.4   147.5                  35          
1995-04-22 12   10.0   147.1                  30          
1995-04-22 18    9.6   146.6                  30          
1995-04-23 00    9.2   146.2                  25          
1995-04-23 06    8.9   145.8                  25          
1995-04-23 12    8.6   145.5                  20          
Winds are 1-min average.

Tropical cyclone tracks developed by Michael Bath using data from the Joint Typhoon Warning Centre Best Tracks and Google Maps.


[Australian Severe Weather index] [Copyright Notice] [Email Contacts] [Search This Site] [Privacy Policy]
Document: tropical_cyclone_agnes.htm Updated: 18 September 2016